XNO38N YMML-YSSY
Flight info
| Callsign | XNO38N |
|---|---|
| Flight time | 1h 7m |
| Altitude | 37000 |
| Route | DOSEL2/34 DOSEL Y59 RIVET |
| Aircraft | A320/M-SDE3FGHIRWY/LB1 |
Departure
| Time | 2026-05-04 09:26 |
|---|---|
| Airport | Melbourne Airport (YMML) |
Arrival
| Time | 2026-05-04 10:33 |
|---|---|
| Airport | Sydney Kingsford Smith International Airport (YSSY) |
| Time | Latitude | Longitude | Altitude | Speed | Heading |
|---|---|---|---|---|---|
| 2026-05-04 08:21 | -37.67072 | 144.84624 | 390 ft | 0 kts | 172° |
| 2026-05-04 09:11 | -37.67056 | 144.84621 | 390 ft | 0 kts | 180° |
| 2026-05-04 09:14 | -37.66999 | 144.84677 | 393 ft | 2 kts | 261° |
| 2026-05-04 09:14 | -37.66999 | 144.84680 | 393 ft | 0 kts | 261° |
| 2026-05-04 09:17 | -37.67068 | 144.84214 | 385 ft | 10 kts | 262° |
| 2026-05-04 09:18 | -37.67081 | 144.84122 | 382 ft | 9 kts | 261° |
| 2026-05-04 09:18 | -37.67118 | 144.84059 | 380 ft | 10 kts | 198° |
| 2026-05-04 09:18 | -37.67183 | 144.84059 | 380 ft | 9 kts | 174° |
| 2026-05-04 09:18 | -37.67254 | 144.84072 | 377 ft | 14 kts | 171° |
| 2026-05-04 09:19 | -37.67370 | 144.84095 | 374 ft | 20 kts | 171° |
| 2026-05-04 09:19 | -37.67433 | 144.84107 | 373 ft | 4 kts | 171° |
| 2026-05-04 09:19 | -37.67472 | 144.84115 | 372 ft | 9 kts | 171° |
| 2026-05-04 09:19 | -37.67556 | 144.84129 | 370 ft | 0 kts | 174° |
| 2026-05-04 09:20 | -37.67594 | 144.84135 | 374 ft | 10 kts | 172° |
| 2026-05-04 09:20 | -37.67620 | 144.84140 | 368 ft | 0 kts | 172° |
| 2026-05-04 09:20 | -37.67632 | 144.84142 | 367 ft | 9 kts | 171° |
| 2026-05-04 09:20 | -37.67724 | 144.84160 | 367 ft | 8 kts | 171° |
| 2026-05-04 09:21 | -37.67781 | 144.84171 | 368 ft | 9 kts | 171° |
| 2026-05-04 09:21 | -37.67823 | 144.84177 | 360 ft | 5 kts | 179° |
| 2026-05-04 09:21 | -37.67860 | 144.84154 | 362 ft | 6 kts | 221° |
| 2026-05-04 09:21 | -37.67867 | 144.84138 | 358 ft | 0 kts | 248° |
| 2026-05-04 09:25 | -37.67238 | 144.83848 | 381 ft | 102 kts | 351° |
| 2026-05-04 09:25 | -37.66362 | 144.83693 | 468 ft | 144 kts | 352° |
| 2026-05-04 09:26 | -37.65383 | 144.83497 | 1228 ft | 141 kts | 348° |
| 2026-05-04 09:26 | -37.64411 | 144.83302 | 2008 ft | 141 kts | 345° |
| 2026-05-04 09:26 | -37.63374 | 144.83085 | 2417 ft | 163 kts | 344° |
| 2026-05-04 09:26 | -37.62179 | 144.82842 | 2781 ft | 187 kts | 345° |
| 2026-05-04 09:27 | -37.60800 | 144.82569 | 3231 ft | 212 kts | 344° |
| 2026-05-04 09:27 | -37.59255 | 144.82342 | 3785 ft | 238 kts | 355° |
| 2026-05-04 09:27 | -37.57568 | 144.82945 | 4506 ft | 262 kts | 17° |
| 2026-05-04 09:27 | -37.55890 | 144.83940 | 5422 ft | 270 kts | 20° |
| 2026-05-04 09:28 | -37.54202 | 144.85037 | 6376 ft | 275 kts | 21° |
| 2026-05-04 09:28 | -37.52493 | 144.86162 | 7233 ft | 279 kts | 21° |
| 2026-05-04 09:28 | -37.50753 | 144.87288 | 8127 ft | 283 kts | 21° |
| 2026-05-04 09:28 | -37.48983 | 144.88406 | 9009 ft | 287 kts | 21° |
| 2026-05-04 09:29 | -37.47177 | 144.89524 | 9857 ft | 292 kts | 21° |
| 2026-05-04 09:29 | -37.45337 | 144.90724 | 10382 ft | 310 kts | 27° |
| 2026-05-04 09:29 | -37.43537 | 144.92437 | 10665 ft | 339 kts | 39° |
| 2026-05-04 09:29 | -37.41899 | 144.94738 | 10894 ft | 367 kts | 51° |
| 2026-05-04 09:30 | -37.40424 | 144.97430 | 11408 ft | 378 kts | 52° |
| 2026-05-04 09:30 | -37.38906 | 145.00162 | 12136 ft | 383 kts | 52° |
| 2026-05-04 09:30 | -37.37356 | 145.02903 | 12890 ft | 387 kts | 51° |
| 2026-05-04 09:30 | -37.35777 | 145.05673 | 13638 ft | 391 kts | 51° |
| 2026-05-04 09:31 | -37.34183 | 145.08467 | 14315 ft | 395 kts | 51° |
| 2026-05-04 09:31 | -37.32575 | 145.11285 | 14966 ft | 399 kts | 51° |
| 2026-05-04 09:31 | -37.30956 | 145.14132 | 15635 ft | 402 kts | 51° |
| 2026-05-04 09:31 | -37.29328 | 145.17006 | 16283 ft | 405 kts | 51° |
| 2026-05-04 09:32 | -37.27688 | 145.19900 | 16907 ft | 409 kts | 51° |
| 2026-05-04 09:32 | -37.26031 | 145.22817 | 17505 ft | 412 kts | 51° |
| 2026-05-04 09:34 | -37.14069 | 145.43774 | 21266 ft | 431 kts | 50° |
| 2026-05-04 09:34 | -37.12313 | 145.46839 | 21765 ft | 434 kts | 50° |
| 2026-05-04 09:34 | -37.10549 | 145.49917 | 22259 ft | 436 kts | 50° |
| 2026-05-04 09:34 | -37.08772 | 145.53016 | 22740 ft | 439 kts | 50° |
| 2026-05-04 09:35 | -37.06984 | 145.56129 | 23197 ft | 442 kts | 50° |
| 2026-05-04 09:35 | -37.05185 | 145.59263 | 23627 ft | 445 kts | 50° |
| 2026-05-04 09:35 | -37.03376 | 145.62410 | 23914 ft | 447 kts | 50° |
| 2026-05-04 09:35 | -37.01555 | 145.65567 | 23989 ft | 447 kts | 50° |
| 2026-05-04 09:37 | -36.88828 | 145.87562 | 24014 ft | 446 kts | 49° |
| 2026-05-04 09:37 | -36.87007 | 145.90694 | 24015 ft | 446 kts | 48° |
| 2026-05-04 09:38 | -36.85179 | 145.93835 | 24194 ft | 448 kts | 48° |
| 2026-05-04 09:38 | -36.83340 | 145.96990 | 24610 ft | 451 kts | 47° |
| 2026-05-04 09:38 | -36.81493 | 146.00158 | 24980 ft | 453 kts | 47° |
| 2026-05-04 09:38 | -36.79634 | 146.03348 | 25330 ft | 456 kts | 47° |
| 2026-05-04 09:39 | -36.77763 | 146.06553 | 25687 ft | 458 kts | 46° |
| 2026-05-04 09:39 | -36.75882 | 146.09774 | 26043 ft | 460 kts | 46° |
| 2026-05-04 09:39 | -36.73992 | 146.13008 | 26381 ft | 463 kts | 46° |
| 2026-05-04 09:39 | -36.72091 | 146.16264 | 26709 ft | 465 kts | 45° |
| 2026-05-04 09:40 | -36.70181 | 146.19533 | 27013 ft | 468 kts | 45° |
| 2026-05-04 09:40 | -36.68258 | 146.22815 | 27333 ft | 470 kts | 45° |
| 2026-05-04 09:40 | -36.66325 | 146.26110 | 27652 ft | 472 kts | 45° |
| 2026-05-04 09:40 | -36.64381 | 146.29418 | 27963 ft | 474 kts | 45° |
| 2026-05-04 09:41 | -36.62430 | 146.32738 | 28275 ft | 476 kts | 45° |
| 2026-05-04 09:42 | -36.48692 | 146.56017 | 30851 ft | 476 kts | 45° |
| 2026-05-04 09:43 | -36.46729 | 146.59337 | 31163 ft | 477 kts | 44° |
| 2026-05-04 09:43 | -36.44762 | 146.62653 | 31474 ft | 477 kts | 44° |
| 2026-05-04 09:43 | -36.42791 | 146.65970 | 31782 ft | 478 kts | 44° |
| 2026-05-04 09:43 | -36.40816 | 146.69295 | 32091 ft | 478 kts | 45° |
| 2026-05-04 09:44 | -36.38842 | 146.72621 | 32415 ft | 479 kts | 45° |
| 2026-05-04 09:44 | -36.37535 | 146.74824 | 32632 ft | 479 kts | 45° |
| 2026-05-04 09:44 | -36.34974 | 146.79162 | 34222 ft | 447 kts | 45° |
| 2026-05-04 09:46 | -36.22612 | 146.99736 | 36788 ft | 432 kts | 45° |
| 2026-05-04 09:46 | -36.19585 | 147.04773 | 37018 ft | 438 kts | 45° |
| 2026-05-04 09:47 | -36.15905 | 147.10904 | 37058 ft | 450 kts | 45° |
| 2026-05-04 09:49 | -36.02214 | 147.33607 | 37065 ft | 485 kts | 45° |
| 2026-05-04 09:49 | -36.00189 | 147.36946 | 37073 ft | 485 kts | 45° |
| 2026-05-04 09:51 | -35.85985 | 147.60269 | 37076 ft | 486 kts | 45° |
| 2026-05-04 09:51 | -35.81926 | 147.66931 | 37075 ft | 486 kts | 45° |
| 2026-05-04 09:52 | -35.77851 | 147.73585 | 37077 ft | 487 kts | 45° |
| 2026-05-04 09:52 | -35.73759 | 147.80235 | 37074 ft | 487 kts | 45° |
| 2026-05-04 09:53 | -35.69697 | 147.86851 | 37079 ft | 488 kts | 45° |
| 2026-05-04 09:53 | -35.65603 | 147.93512 | 37081 ft | 488 kts | 44° |
| 2026-05-04 09:54 | -35.61494 | 148.00164 | 37081 ft | 489 kts | 44° |
| 2026-05-04 09:54 | -35.57385 | 148.06818 | 37094 ft | 489 kts | 44° |
| 2026-05-04 09:55 | -35.53268 | 148.13462 | 37095 ft | 489 kts | 44° |
| 2026-05-04 09:55 | -35.49146 | 148.20097 | 37093 ft | 489 kts | 44° |
| 2026-05-04 09:56 | -35.45028 | 148.26727 | 37093 ft | 488 kts | 44° |
| 2026-05-04 09:56 | -35.40902 | 148.33344 | 37078 ft | 489 kts | 44° |
| 2026-05-04 09:57 | -35.36757 | 148.39979 | 37070 ft | 491 kts | 44° |
| 2026-05-04 09:57 | -35.32595 | 148.46617 | 37074 ft | 492 kts | 44° |
| 2026-05-04 09:58 | -35.28429 | 148.53273 | 37072 ft | 493 kts | 44° |
| 2026-05-04 09:58 | -35.24254 | 148.59933 | 37075 ft | 493 kts | 44° |
| 2026-05-04 10:00 | -35.06562 | 148.77318 | 37113 ft | 461 kts | 22° |
| 2026-05-04 10:00 | -35.03840 | 148.79383 | 37113 ft | 460 kts | 22° |
| 2026-05-04 10:04 | -34.66565 | 149.08432 | 37092 ft | 473 kts | 32° |
| 2026-05-04 10:04 | -34.61649 | 149.13704 | 36372 ft | 471 kts | 32° |
| 2026-05-04 10:04 | -34.59190 | 149.16325 | 35691 ft | 470 kts | 32° |
| 2026-05-04 10:05 | -34.56734 | 149.18942 | 35251 ft | 468 kts | 32° |
| 2026-05-04 10:05 | -34.54284 | 149.21550 | 35067 ft | 469 kts | 32° |
| 2026-05-04 10:05 | -34.51832 | 149.24165 | 35114 ft | 470 kts | 32° |
| 2026-05-04 10:06 | -34.46920 | 149.29408 | 35011 ft | 472 kts | 33° |
| 2026-05-04 10:06 | -34.44622 | 149.32304 | 34763 ft | 483 kts | 42° |
| 2026-05-04 10:06 | -34.42667 | 149.35662 | 34523 ft | 494 kts | 51° |
| 2026-05-04 10:08 | -34.34693 | 149.59430 | 28171 ft | 507 kts | 62° |
| 2026-05-04 10:08 | -34.33394 | 149.63432 | 27018 ft | 510 kts | 62° |
| 2026-05-04 10:08 | -34.32091 | 149.67420 | 25903 ft | 510 kts | 62° |
| 2026-05-04 10:08 | -34.30779 | 149.71415 | 24723 ft | 512 kts | 62° |
| 2026-05-04 10:09 | -34.29463 | 149.75419 | 23531 ft | 513 kts | 62° |
| 2026-05-04 10:09 | -34.28157 | 149.79401 | 22571 ft | 499 kts | 62° |
| 2026-05-04 10:09 | -34.26924 | 149.83194 | 21238 ft | 484 kts | 63° |
| 2026-05-04 10:09 | -34.25690 | 149.86968 | 20324 ft | 480 kts | 63° |
| 2026-05-04 10:10 | -34.24467 | 149.90692 | 19624 ft | 473 kts | 63° |
| 2026-05-04 10:10 | -34.23259 | 149.94357 | 18911 ft | 466 kts | 63° |
| 2026-05-04 10:10 | -34.22064 | 149.97970 | 18202 ft | 460 kts | 63° |
| 2026-05-04 10:10 | -34.20881 | 150.01538 | 17410 ft | 455 kts | 63° |
| 2026-05-04 10:11 | -34.19710 | 150.05071 | 16781 ft | 452 kts | 63° |
| 2026-05-04 10:11 | -34.18554 | 150.08571 | 16116 ft | 446 kts | 63° |
| 2026-05-04 10:11 | -34.17545 | 150.12081 | 15299 ft | 437 kts | 70° |
| 2026-05-04 10:11 | -34.16774 | 150.15599 | 14012 ft | 430 kts | 71° |
| 2026-05-04 10:12 | -34.16038 | 150.19053 | 12636 ft | 421 kts | 71° |
| 2026-05-04 10:12 | -34.15312 | 150.22459 | 11334 ft | 421 kts | 71° |
| 2026-05-04 10:12 | -34.14580 | 150.25874 | 10596 ft | 416 kts | 71° |
| 2026-05-04 10:12 | -34.13868 | 150.29194 | 10301 ft | 400 kts | 71° |
| 2026-05-04 10:13 | -34.13186 | 150.32373 | 10131 ft | 382 kts | 71° |
| 2026-05-04 10:13 | -34.12531 | 150.35400 | 10015 ft | 364 kts | 71° |
| 2026-05-04 10:13 | -34.11908 | 150.38269 | 10033 ft | 343 kts | 71° |
| 2026-05-04 10:13 | -34.11316 | 150.40983 | 10042 ft | 327 kts | 70° |
| 2026-05-04 10:14 | -34.10752 | 150.43566 | 10034 ft | 310 kts | 70° |
| 2026-05-04 10:14 | -34.10210 | 150.46032 | 9960 ft | 300 kts | 70° |
| 2026-05-04 10:16 | -34.06536 | 150.62861 | 8498 ft | 295 kts | 71° |
| 2026-05-04 10:16 | -34.06021 | 150.65259 | 8365 ft | 295 kts | 71° |
| 2026-05-04 10:16 | -34.05507 | 150.67652 | 8240 ft | 295 kts | 71° |
| 2026-05-04 10:16 | -34.04994 | 150.70044 | 8114 ft | 294 kts | 71° |
| 2026-05-04 10:17 | -34.04481 | 150.72429 | 7935 ft | 294 kts | 71° |
| 2026-05-04 10:17 | -34.03968 | 150.74807 | 7591 ft | 292 kts | 71° |
| 2026-05-04 10:19 | -34.00240 | 150.90997 | 6162 ft | 283 kts | 69° |
| 2026-05-04 10:19 | -33.99703 | 150.93271 | 6031 ft | 282 kts | 69° |
| 2026-05-04 10:19 | -33.99170 | 150.95534 | 6010 ft | 280 kts | 69° |
| 2026-05-04 10:19 | -33.98637 | 150.97792 | 6013 ft | 280 kts | 69° |
| 2026-05-04 10:20 | -33.98131 | 151.00062 | 6008 ft | 281 kts | 71° |
| 2026-05-04 10:20 | -33.97653 | 151.02343 | 6004 ft | 281 kts | 71° |
| 2026-05-04 10:20 | -33.97189 | 151.04625 | 6006 ft | 281 kts | 72° |
| 2026-05-04 10:20 | -33.96728 | 151.06916 | 6008 ft | 282 kts | 71° |
| 2026-05-04 10:21 | -33.96264 | 151.09204 | 6011 ft | 281 kts | 71° |
| 2026-05-04 10:21 | -33.95795 | 151.11491 | 6008 ft | 281 kts | 71° |
| 2026-05-04 10:21 | -33.95320 | 151.13772 | 6005 ft | 281 kts | 71° |
| 2026-05-04 10:21 | -33.94841 | 151.16052 | 6010 ft | 280 kts | 71° |
| 2026-05-04 10:22 | -33.94965 | 151.20690 | 6003 ft | 292 kts | 115° |
| 2026-05-04 10:22 | -33.96185 | 151.22653 | 6015 ft | 295 kts | 131° |
| 2026-05-04 10:22 | -33.97593 | 151.24448 | 6015 ft | 295 kts | 133° |
| 2026-05-04 10:23 | -33.98987 | 151.26178 | 6007 ft | 280 kts | 133° |
| 2026-05-04 10:23 | -34.00329 | 151.27839 | 6012 ft | 275 kts | 133° |
| 2026-05-04 10:25 | -34.11024 | 151.36373 | 5880 ft | 263 kts | 168° |
| 2026-05-04 10:25 | -34.12830 | 151.36880 | 5291 ft | 272 kts | 168° |
| 2026-05-04 10:25 | -34.14691 | 151.37387 | 4672 ft | 274 kts | 168° |
| 2026-05-04 10:25 | -34.16563 | 151.37533 | 4036 ft | 269 kts | 193° |
| 2026-05-04 10:26 | -34.18242 | 151.36650 | 3418 ft | 261 kts | 224° |
| 2026-05-04 10:26 | -34.19303 | 151.34968 | 2797 ft | 249 kts | 254° |
| 2026-05-04 10:26 | -34.19790 | 151.32983 | 2207 ft | 247 kts | 263° |
| 2026-05-04 10:26 | -34.20180 | 151.30989 | 2023 ft | 239 kts | 263° |
| 2026-05-04 10:27 | -34.20277 | 151.29048 | 2006 ft | 227 kts | 288° |
| 2026-05-04 10:27 | -34.19733 | 151.27306 | 2008 ft | 215 kts | 306° |
| 2026-05-04 10:27 | -34.18868 | 151.25958 | 2005 ft | 193 kts | 322° |
| 2026-05-04 10:27 | -34.17843 | 151.25042 | 2006 ft | 178 kts | 336° |
| 2026-05-04 10:28 | -34.16721 | 151.24500 | 2036 ft | 170 kts | 347° |
| 2026-05-04 10:28 | -34.15556 | 151.24194 | 2018 ft | 171 kts | 350° |
| 2026-05-04 10:28 | -34.14387 | 151.23889 | 2009 ft | 171 kts | 349° |
| 2026-05-04 10:28 | -34.13223 | 151.23585 | 2010 ft | 172 kts | 349° |
| 2026-05-04 10:29 | -34.12054 | 151.23280 | 2007 ft | 172 kts | 350° |
| 2026-05-04 10:29 | -34.10888 | 151.22976 | 2009 ft | 173 kts | 349° |
| 2026-05-04 10:29 | -34.09703 | 151.22668 | 2006 ft | 175 kts | 349° |
| 2026-05-04 10:29 | -34.08547 | 151.22366 | 2003 ft | 162 kts | 349° |
| 2026-05-04 10:30 | -34.07466 | 151.22084 | 1941 ft | 157 kts | 349° |
| 2026-05-04 10:30 | -34.06425 | 151.21813 | 1802 ft | 150 kts | 350° |
| 2026-05-04 10:30 | -34.05415 | 151.21550 | 1620 ft | 149 kts | 350° |
| 2026-05-04 10:30 | -34.04430 | 151.21293 | 1430 ft | 140 kts | 351° |
| 2026-05-04 10:31 | -34.03503 | 151.21052 | 1252 ft | 133 kts | 349° |
| 2026-05-04 10:31 | -34.02607 | 151.20819 | 1098 ft | 130 kts | 352° |
| 2026-05-04 10:32 | -33.97636 | 151.19523 | 184 ft | 127 kts | 350° |
| 2026-05-04 10:33 | -33.96763 | 151.19301 | 29 ft | 126 kts | 349° |
| 2026-05-04 10:33 | -33.96043 | 151.19112 | 29 ft | 37 kts | 347° |
| 2026-05-04 10:33 | -33.95890 | 151.19043 | 29 ft | 33 kts | 330° |
| 2026-05-04 10:33 | -33.95763 | 151.18910 | 29 ft | 0 kts | 319° |
| 2026-05-04 10:34 | -33.95761 | 151.18908 | 28 ft | 2 kts | 319° |
| 2026-05-04 10:34 | -33.95713 | 151.18862 | 26 ft | 14 kts | 326° |
| 2026-05-04 10:35 | -33.95629 | 151.18808 | 24 ft | 15 kts | 337° |
| 2026-05-04 10:35 | -33.95515 | 151.18773 | 22 ft | 18 kts | 348° |
| 2026-05-04 10:35 | -33.95401 | 151.18744 | 22 ft | 17 kts | 348° |
| 2026-05-04 10:35 | -33.95286 | 151.18707 | 26 ft | 17 kts | 338° |
| 2026-05-04 10:36 | -33.95201 | 151.18635 | 25 ft | 11 kts | 317° |
| 2026-05-04 10:36 | -33.95140 | 151.18565 | 24 ft | 13 kts | 311° |
| 2026-05-04 10:36 | -33.95117 | 151.18460 | 24 ft | 14 kts | 265° |
| 2026-05-04 10:36 | -33.95134 | 151.18351 | 24 ft | 13 kts | 256° |
| 2026-05-04 10:37 | -33.95152 | 151.18254 | 24 ft | 11 kts | 258° |
| 2026-05-04 10:37 | -33.95162 | 151.18201 | 25 ft | 0 kts | 258° |
| 2026-05-04 10:37 | -33.95170 | 151.18157 | 26 ft | 7 kts | 257° |
| 2026-05-04 10:37 | -33.95171 | 151.18149 | 26 ft | 0 kts | 257° |
| 2026-05-04 10:40 | -33.95185 | 151.18072 | 26 ft | 14 kts | 258° |
| 2026-05-04 10:40 | -33.95170 | 151.17973 | 27 ft | 13 kts | 316° |
| 2026-05-04 10:40 | -33.95082 | 151.17938 | 25 ft | 14 kts | 346° |
| 2026-05-04 10:40 | -33.94971 | 151.17910 | 23 ft | 19 kts | 349° |
| 2026-05-04 10:41 | -33.94843 | 151.17876 | 24 ft | 17 kts | 347° |
| 2026-05-04 10:41 | -33.94721 | 151.17844 | 22 ft | 19 kts | 349° |
| 2026-05-04 10:41 | -33.94591 | 151.17812 | 26 ft | 18 kts | 347° |
| 2026-05-04 10:41 | -33.94457 | 151.17774 | 24 ft | 20 kts | 346° |
| 2026-05-04 10:42 | -33.94320 | 151.17732 | 22 ft | 14 kts | 345° |
| 2026-05-04 10:42 | -33.94222 | 151.17702 | 21 ft | 14 kts | 345° |
| 2026-05-04 10:42 | -33.94123 | 151.17670 | 22 ft | 16 kts | 345° |
| 2026-05-04 10:42 | -33.94015 | 151.17638 | 21 ft | 16 kts | 347° |
| 2026-05-04 10:43 | -33.93919 | 151.17616 | 19 ft | 12 kts | 357° |
| 2026-05-04 10:44 | -33.93781 | 151.18025 | 31 ft | 6 kts | 75° |
| 2026-05-04 10:45 | -33.93753 | 151.18069 | 31 ft | 10 kts | 21° |
| 2026-05-04 10:45 | -33.93691 | 151.18061 | 31 ft | 9 kts | 349° |
| 2026-05-04 10:45 | -33.93641 | 151.18055 | 31 ft | 5 kts | 358° |
| 2026-05-04 10:45 | -33.93606 | 151.18036 | 31 ft | 6 kts | 296° |
| 2026-05-04 10:46 | -33.93605 | 151.18033 | 31 ft | 0 kts | 294° |
| 2026-05-04 10:49 | -33.93641 | 151.17998 | 31 ft | 7 kts | 280° |
| 2026-05-04 10:49 | -33.93640 | 151.17988 | 31 ft | 0 kts | 280° |